createdAt,value
2019-04-05T00:00:22.684Z,16.17
2019-04-05T00:02:51.106Z,13.77
2019-04-05T00:05:19.558Z,19.37
2019-04-05T00:07:47.985Z,17.93
2019-04-05T00:10:16.771Z,21.13
2019-04-05T00:12:45.219Z,21.40
2019-04-05T00:15:16.064Z,18.10
2019-04-05T00:17:43.882Z,21.43
2019-04-05T00:20:13.883Z,19.63
2019-04-05T00:22:42.308Z,18.50
2019-04-05T00:25:11.005Z,18.23
2019-04-05T00:27:39.426Z,16.97
2019-04-05T00:30:08.627Z,18.73
2019-04-05T00:32:37.062Z,21.60
2019-04-05T00:35:07.643Z,23.77
2019-04-05T00:37:36.072Z,19.33
2019-04-05T00:40:07.135Z,17.40
2019-04-05T00:42:35.586Z,19.03
2019-04-05T00:45:06.061Z,18.80
2019-04-05T00:47:34.502Z,18.43
2019-04-05T00:50:03.623Z,16.33
2019-04-05T00:52:32.072Z,20.40
2019-04-05T00:55:00.503Z,15.30
2019-04-05T00:57:28.944Z,18.67
2019-04-05T00:59:57.412Z,17.23
2019-04-05T01:02:25.914Z,17.27
2019-04-05T01:04:54.366Z,17.87
2019-04-05T01:07:23.499Z,18.37
2019-04-05T01:09:51.938Z,18.77
2019-04-05T01:12:22.496Z,16.97
2019-04-05T01:14:51.011Z,18.53
2019-04-05T01:17:24.892Z,17.87
2019-04-05T01:19:50.870Z,15.23
2019-04-05T01:22:22.396Z,20.47
2019-04-05T01:24:50.892Z,22.47
2019-04-05T01:27:20.375Z,25.87
2019-04-05T01:29:48.813Z,17.83
2019-04-05T01:32:17.306Z,16.23
2019-04-05T01:34:45.731Z,17.20
2019-04-05T01:37:14.219Z,19.37
2019-04-05T01:39:42.651Z,16.83
2019-04-05T01:42:11.167Z,20.53
2019-04-05T01:44:40.245Z,21.80
2019-04-05T01:47:08.712Z,19.27
2019-04-05T01:49:37.263Z,22.27
2019-04-05T01:52:05.700Z,21.70
2019-04-05T01:54:34.152Z,18.93
2019-04-05T01:57:02.583Z,21.43
2019-04-05T01:59:31.121Z,24.30
2019-04-05T02:01:59.633Z,20.40
2019-04-05T02:04:28.069Z,22.17
2019-04-05T02:06:56.769Z,22.60
2019-04-05T02:09:25.227Z,19.40
2019-04-05T02:11:53.643Z,19.70
2019-04-05T02:14:22.114Z,21.13
2019-04-05T02:16:50.609Z,23.50
2019-04-05T02:19:19.070Z,24.90
2019-04-05T02:21:47.514Z,19.77
2019-04-05T02:24:15.990Z,23.37
2019-04-05T02:26:44.428Z,27.37
2019-04-05T02:29:12.849Z,24.97
2019-04-05T02:31:41.292Z,21.30
2019-04-05T02:34:09.704Z,22.27
2019-04-05T02:36:38.151Z,22.67
2019-04-05T02:39:07.707Z,24.63
2019-04-05T02:41:38.309Z,22.73
2019-04-05T02:44:09.346Z,22.03
2019-04-05T02:46:40.088Z,28.05
2019-04-05T02:49:09.960Z,30.70
2019-04-05T02:51:39.636Z,23.90
2019-04-05T02:54:09.015Z,23.20
2019-04-05T02:56:38.214Z,24.57
2019-04-05T02:59:07.657Z,27.77
2019-04-05T03:01:36.295Z,32.00
2019-04-05T03:04:05.099Z,25.80
2019-04-05T03:06:33.555Z,24.30
2019-04-05T03:09:04.297Z,20.13
2019-04-05T03:11:33.573Z,21.90
2019-04-05T03:14:03.873Z,23.37
2019-04-05T03:16:40.760Z,24.03
2019-04-05T03:19:08.662Z,21.27
2019-04-05T03:21:40.228Z,22.90
2019-04-05T03:24:11.694Z,21.67
2019-04-05T03:26:43.192Z,20.13
2019-04-05T03:29:11.968Z,18.53
2019-04-05T03:31:40.547Z,19.07
2019-04-05T03:34:09.300Z,23.83
2019-04-05T03:36:38.493Z,26.80
2019-04-05T03:39:07.368Z,28.43
2019-04-05T03:41:36.458Z,24.67
2019-04-05T03:44:05.514Z,36.47
2019-04-05T03:46:34.250Z,42.70
2019-04-05T03:49:04.003Z,50.10
2019-04-05T03:51:32.784Z,64.27
2019-04-05T03:54:01.369Z,81.97
2019-04-05T03:56:30.075Z,103.87
2019-04-05T03:58:58.686Z,100.53
2019-04-05T04:01:27.327Z,115.63
2019-04-05T04:03:55.747Z,116.43
2019-04-05T04:06:24.216Z,122.90
2019-04-05T04:08:53.346Z,123.63
2019-04-05T04:11:22.279Z,134.57
2019-04-05T04:13:51.152Z,140.60
2019-04-05T04:16:19.647Z,136.73
2019-04-05T04:18:48.274Z,129.03
2019-04-05T04:21:31.358Z,138.30
2019-04-05T04:23:59.762Z,133.30
2019-04-05T04:26:28.282Z,130.67
2019-04-05T04:28:57.307Z,128.73
2019-04-05T04:31:26.148Z,131.47
2019-04-05T04:33:54.569Z,135.37
2019-04-05T04:36:24.014Z,144.43
2019-04-05T04:38:52.690Z,137.17
2019-04-05T04:41:21.315Z,134.17
2019-04-05T04:43:49.746Z,139.10
2019-04-05T04:46:18.951Z,123.63
2019-04-05T04:48:48.254Z,131.37
2019-04-05T04:51:17.935Z,131.90
2019-04-05T04:53:46.566Z,141.07
2019-04-05T04:56:15.069Z,133.30
2019-04-05T04:58:46.239Z,136.50
2019-04-05T05:01:14.002Z,133.97
2019-04-05T05:03:43.705Z,128.30
2019-04-05T05:06:12.150Z,123.60
2019-04-05T05:08:41.110Z,136.23
2019-04-05T05:11:14.858Z,134.23
2019-04-05T05:13:40.831Z,125.73
2019-04-05T05:16:09.410Z,130.40
2019-04-05T05:18:38.371Z,129.80
2019-04-05T05:21:07.097Z,129.53
2019-04-05T05:23:35.587Z,123.63
2019-04-05T05:26:05.036Z,142.07
2019-04-05T05:28:33.565Z,106.50
2019-04-05T05:31:04.812Z,121.43
2019-04-05T05:33:33.628Z,121.47
2019-04-05T05:36:02.265Z,130.80
2019-04-05T05:38:30.709Z,128.60
2019-04-05T05:41:03.805Z,124.90
2019-04-05T05:43:32.672Z,127.27
2019-04-05T05:46:01.115Z,126.33
2019-04-05T05:48:31.015Z,122.07
2019-04-05T05:50:59.641Z,124.38
2019-04-05T05:53:28.331Z,125.63
2019-04-05T05:55:57.286Z,125.50
2019-04-05T05:58:26.441Z,130.23
2019-04-05T06:00:55.662Z,136.37
2019-04-05T06:03:24.175Z,131.73
2019-04-05T06:06:03.645Z,136.50
2019-04-05T06:08:22.855Z,133.47
2019-04-05T06:10:51.294Z,127.67
2019-04-05T06:13:20.049Z,127.63
2019-04-05T06:15:48.557Z,120.33
2019-04-05T06:18:17.030Z,133.00
2019-04-05T06:20:45.506Z,120.97
2019-04-05T06:23:13.956Z,117.40
2019-04-05T06:25:42.466Z,131.50
2019-04-05T06:28:10.961Z,130.07
2019-04-05T06:30:39.410Z,131.07
2019-04-05T06:33:07.855Z,133.57
2019-04-05T06:35:36.296Z,133.70
2019-04-05T06:38:04.724Z,133.07
2019-04-05T06:40:40.685Z,132.57
2019-04-05T06:43:06.425Z,125.13
2019-04-05T06:45:33.501Z,125.27
2019-04-05T06:48:01.928Z,125.23
2019-04-05T06:50:30.388Z,134.80
2019-04-05T06:52:58.808Z,131.37
2019-04-05T06:55:27.255Z,136.77
2019-04-05T06:57:56.069Z,131.53
2019-04-05T07:00:29.178Z,128.93
2019-04-05T07:02:58.841Z,131.67
2019-04-05T07:05:27.349Z,121.47
2019-04-05T07:07:55.795Z,131.97
2019-04-05T07:10:24.334Z,125.33
2019-04-05T07:12:52.806Z,119.03
2019-04-05T07:15:21.295Z,111.83
2019-04-05T07:17:49.745Z,121.67
2019-04-05T07:20:18.172Z,112.53
2019-04-05T07:22:46.629Z,117.83
2019-04-05T07:25:15.136Z,113.77
2019-04-05T07:27:43.583Z,119.20
2019-04-05T07:30:13.195Z,114.77
2019-04-05T07:32:41.645Z,129.20
2019-04-05T07:35:10.160Z,110.17
2019-04-05T07:37:38.617Z,111.87
2019-04-05T07:40:07.698Z,104.93
2019-04-05T07:42:36.186Z,113.53
2019-04-05T07:45:06.147Z,112.83
2019-04-05T07:47:34.618Z,115.03
2019-04-05T07:50:04.203Z,113.07
2019-04-05T07:52:32.671Z,108.93
2019-04-05T07:55:01.135Z,108.67
2019-04-05T07:57:29.636Z,96.47
2019-04-05T07:59:58.061Z,98.50
2019-04-05T08:02:26.507Z,106.80
2019-04-05T08:04:54.945Z,104.67
2019-04-05T08:07:27.405Z,105.13
2019-04-05T08:09:56.688Z,99.50
2019-04-05T08:12:25.651Z,91.27
2019-04-05T08:14:55.344Z,91.17
2019-04-05T08:17:24.490Z,85.47
2019-04-05T08:19:52.998Z,89.53
2019-04-05T08:22:21.447Z,87.13
2019-04-05T08:24:49.880Z,93.20
2019-04-05T08:27:18.338Z,85.63
2019-04-05T08:29:46.846Z,89.67
2019-04-05T08:32:15.313Z,85.43
2019-04-05T08:34:43.721Z,89.97
2019-04-05T08:37:12.152Z,81.77
2019-04-05T08:39:40.611Z,83.70
2019-04-05T08:42:10.789Z,82.97
2019-04-05T08:44:39.213Z,78.70
2019-04-05T08:47:07.647Z,77.33
2019-04-05T08:49:36.086Z,77.57
2019-04-05T08:52:04.629Z,83.30
2019-04-05T08:54:36.513Z,77.53
2019-04-05T08:57:03.227Z,81.00
2019-04-05T08:59:31.656Z,83.57
2019-04-05T09:02:00.118Z,73.30
2019-04-05T09:04:28.658Z,72.47
2019-04-05T09:06:57.079Z,75.43
2019-04-05T09:09:25.545Z,78.47
2019-04-05T09:11:54.626Z,78.30
2019-04-05T09:14:23.047Z,74.23
2019-04-05T09:16:51.506Z,77.47
2019-04-05T09:19:23.861Z,74.87
2019-04-05T09:21:50.106Z,72.67
2019-04-05T09:24:18.532Z,69.97
2019-04-05T09:26:46.989Z,67.83
2019-04-05T09:29:15.452Z,68.00
2019-04-05T09:31:43.952Z,73.70
2019-04-05T09:34:12.416Z,73.80
2019-04-05T09:36:40.858Z,74.27
2019-04-05T09:39:15.397Z,70.07
2019-04-05T09:41:41.114Z,65.97
2019-04-05T09:44:09.584Z,70.90
2019-04-05T09:46:46.883Z,63.33
2019-04-05T09:49:08.173Z,67.80
2019-04-05T09:51:36.620Z,66.50
2019-04-05T09:54:05.285Z,68.53
2019-04-05T09:56:33.750Z,65.87
2019-04-05T09:59:02.190Z,71.90
2019-04-05T10:01:30.650Z,63.47
2019-04-05T10:03:59.102Z,64.63
2019-04-05T10:06:27.557Z,63.27
2019-04-05T10:08:55.986Z,63.20
2019-04-05T10:11:24.733Z,61.87
2019-04-05T10:13:53.170Z,60.40
2019-04-05T10:16:21.632Z,58.00
2019-04-05T10:18:51.499Z,65.00
2019-04-05T10:21:20.098Z,60.07
2019-04-05T10:23:48.566Z,59.43
2019-04-05T10:26:17.003Z,65.17
2019-04-05T10:28:45.453Z,60.70
2019-04-05T10:31:13.927Z,58.23
2019-04-05T10:33:42.359Z,61.93
2019-04-05T10:36:10.825Z,57.97
2019-04-05T10:38:39.383Z,51.17
2019-04-05T10:41:07.805Z,59.53
2019-04-05T10:43:36.256Z,54.43
2019-04-05T10:46:05.536Z,58.53
2019-04-05T10:48:35.375Z,54.17
2019-04-05T10:51:04.195Z,53.40
2019-04-05T10:53:32.713Z,54.07
2019-04-05T10:56:01.160Z,53.00
2019-04-05T10:58:29.695Z,49.30
2019-04-05T11:00:58.123Z,53.80
2019-04-05T11:03:26.596Z,48.33
2019-04-05T11:05:55.033Z,48.67
2019-04-05T11:08:23.508Z,49.17
2019-04-05T11:10:51.955Z,40.17
2019-04-05T11:13:20.385Z,41.83
2019-04-05T11:15:48.940Z,40.17
2019-04-05T11:18:17.392Z,44.67
2019-04-05T11:20:48.980Z,40.37
2019-04-05T11:23:15.967Z,40.70
2019-04-05T11:25:44.429Z,42.70
2019-04-05T11:28:12.863Z,46.07
2019-04-05T11:30:43.661Z,43.97
2019-04-05T11:33:12.104Z,52.73
2019-04-05T11:35:40.762Z,43.90
2019-04-05T11:38:09.290Z,51.10
2019-04-05T11:40:38.675Z,51.27
2019-04-05T11:43:07.099Z,46.23
2019-04-05T11:45:35.631Z,46.93
2019-04-05T11:48:05.695Z,46.57
2019-04-05T11:50:35.008Z,45.40
2019-04-05T11:53:03.647Z,40.77
2019-04-05T11:55:32.106Z,43.33
2019-04-05T11:58:00.547Z,38.80
2019-04-05T12:00:30.654Z,37.53
2019-04-05T12:03:09.499Z,42.40
2019-04-05T12:05:36.878Z,35.17
2019-04-05T12:08:05.319Z,43.63
2019-04-05T12:10:33.783Z,32.57
2019-04-05T12:13:02.207Z,36.30
2019-04-05T12:15:30.743Z,36.77
2019-04-05T12:17:59.176Z,34.77
2019-04-05T12:20:27.626Z,34.87
2019-04-05T12:22:56.047Z,34.07
2019-04-05T12:25:25.039Z,32.23
2019-04-05T12:28:05.822Z,42.23
2019-04-05T12:30:25.505Z,36.97
2019-04-05T12:32:54.876Z,36.27
2019-04-05T12:35:23.313Z,35.87
2019-04-05T12:37:55.517Z,39.47
2019-04-05T12:40:21.931Z,35.97
2019-04-05T12:42:52.850Z,31.00
2019-04-05T12:45:20.610Z,33.30
2019-04-05T12:47:49.150Z,37.50
2019-04-05T12:50:17.659Z,32.40
2019-04-05T12:52:46.103Z,33.23
2019-04-05T12:55:14.742Z,32.67
2019-04-05T12:57:43.181Z,32.43
2019-04-05T13:00:15.258Z,46.33
2019-04-05T13:02:43.917Z,39.03
2019-04-05T13:05:12.503Z,37.30
2019-04-05T13:07:40.957Z,33.67
2019-04-05T13:10:09.827Z,41.77
2019-04-05T13:12:38.357Z,35.93
2019-04-05T13:15:12.871Z,34.67
2019-04-05T13:17:37.375Z,34.53
2019-04-05T13:20:07.743Z,31.90
2019-04-05T13:22:36.167Z,34.10
2019-04-05T13:25:10.621Z,35.23
2019-04-05T13:27:37.493Z,37.17
2019-04-05T13:30:07.889Z,39.03
2019-04-05T13:32:36.330Z,35.47
2019-04-05T13:35:05.932Z,37.27
2019-04-05T13:37:34.347Z,32.90
2019-04-05T13:40:03.034Z,34.00
2019-04-05T13:42:32.034Z,29.60
2019-04-05T13:45:00.493Z,31.50
2019-04-05T13:47:28.939Z,30.40
2019-04-05T13:49:57.416Z,33.20
2019-04-05T13:52:25.883Z,27.00
2019-04-05T13:54:55.315Z,26.07
2019-04-05T13:57:23.736Z,31.20
2019-04-05T13:59:52.226Z,25.90
2019-04-05T14:02:21.216Z,27.67
2019-04-05T14:04:53.436Z,28.50
2019-04-05T14:07:21.590Z,27.60
2019-04-05T14:09:50.443Z,37.53
2019-04-05T14:12:18.895Z,23.63
2019-04-05T14:14:51.010Z,23.90
2019-04-05T14:17:17.568Z,23.30
2019-04-05T14:19:46.770Z,27.57
2019-04-05T14:22:16.434Z,29.70
2019-04-05T14:24:44.893Z,32.00
2019-04-05T14:27:13.298Z,34.60
2019-04-05T14:29:41.781Z,31.47
2019-04-05T14:32:20.586Z,40.93
2019-04-05T14:34:40.417Z,53.97
2019-04-05T14:37:08.883Z,33.30
2019-04-05T14:39:37.341Z,31.00
2019-04-05T14:42:09.976Z,35.40
2019-04-05T14:44:35.948Z,38.07
2019-04-05T14:47:04.363Z,35.87
2019-04-05T14:49:32.825Z,38.47
2019-04-05T14:52:01.940Z,39.40
2019-04-05T14:54:30.857Z,38.50
2019-04-05T14:57:02.359Z,31.33
2019-04-05T14:59:29.505Z,31.07
2019-04-05T15:01:57.993Z,34.47
2019-04-05T15:04:26.451Z,30.30
2019-04-05T15:06:55.391Z,40.00
2019-04-05T15:09:25.604Z,34.20
2019-04-05T15:11:54.014Z,37.20
2019-04-05T15:14:22.471Z,33.40
2019-04-05T15:16:50.911Z,32.70
2019-04-05T15:19:19.368Z,33.57
2019-04-05T15:21:47.802Z,28.83
2019-04-05T15:24:17.187Z,34.50
2019-04-05T15:26:45.670Z,35.37
2019-04-05T15:29:14.119Z,32.13
2019-04-05T15:31:42.538Z,29.43
2019-04-05T15:34:10.995Z,26.97
2019-04-05T15:36:39.448Z,32.47
2019-04-05T15:39:09.104Z,29.53
2019-04-05T15:41:37.530Z,32.37
2019-04-05T15:44:05.997Z,26.00
2019-04-05T15:46:34.420Z,29.23
2019-04-05T15:49:02.887Z,31.50
2019-04-05T15:51:31.321Z,31.80
2019-04-05T15:54:01.506Z,28.40
2019-04-05T15:56:33.255Z,26.90
2019-04-05T15:59:03.715Z,30.17
2019-04-05T16:01:32.106Z,23.83
2019-04-05T16:04:00.595Z,47.80
2019-04-05T16:06:30.583Z,23.37
2019-04-05T16:08:59.035Z,21.17
2019-04-05T16:11:27.464Z,17.33
2019-04-05T16:13:55.926Z,27.13
2019-04-05T16:16:24.369Z,24.83
2019-04-05T16:18:52.825Z,21.97
2019-04-05T16:21:21.311Z,28.03
2019-04-05T16:23:49.747Z,22.30
2019-04-05T16:26:18.195Z,20.30
2019-04-05T16:28:46.640Z,23.33
2019-04-05T16:31:15.082Z,20.97
2019-04-05T16:33:43.511Z,22.10
2019-04-05T16:36:12.117Z,23.97
2019-04-05T16:38:40.607Z,24.60
2019-04-05T16:41:09.074Z,24.97
2019-04-05T16:43:37.495Z,26.30
2019-04-05T16:46:05.938Z,27.77
2019-04-05T16:48:34.417Z,26.70
2019-04-05T16:51:02.859Z,69.67
2019-04-05T16:53:31.361Z,182.40
2019-04-05T16:55:59.849Z,90.43
2019-04-05T16:58:28.299Z,32.17
2019-04-05T17:00:56.757Z,30.57
2019-04-05T17:03:25.627Z,32.67
2019-04-05T17:05:54.074Z,32.43
2019-04-05T17:08:22.523Z,31.33
2019-04-05T17:10:50.983Z,38.60
2019-04-05T17:13:19.416Z,30.70
2019-04-05T17:15:47.866Z,30.30
2019-04-05T17:18:16.291Z,31.40
2019-04-05T17:20:44.747Z,31.87
2019-04-05T17:23:13.163Z,28.53
2019-04-05T17:25:41.619Z,29.70
2019-04-05T17:28:10.078Z,26.10
2019-04-05T17:30:38.602Z,31.63
2019-04-05T17:33:07.023Z,28.70
2019-04-05T17:35:35.456Z,26.97
2019-04-05T17:38:03.922Z,31.57
2019-04-05T17:40:32.343Z,32.17
2019-04-05T17:43:00.821Z,31.67
2019-04-05T17:45:29.241Z,28.80
2019-04-05T17:47:57.701Z,31.87
2019-04-05T17:50:31.472Z,31.00
2019-04-05T17:53:11.183Z,38.17
2019-04-05T17:55:30.145Z,29.67
2019-04-05T17:57:59.644Z,35.23
2019-04-05T18:00:28.225Z,29.93
2019-04-05T18:02:56.680Z,32.83
2019-04-05T18:05:25.792Z,33.50
2019-04-05T18:07:54.257Z,35.03
2019-04-05T18:10:22.702Z,33.27
2019-04-05T18:12:51.166Z,37.83
2019-04-05T18:15:19.588Z,32.07
2019-04-05T18:17:48.045Z,35.53
2019-04-05T18:20:16.468Z,34.27
2019-04-05T18:22:45.010Z,34.07
2019-04-05T18:25:14.365Z,35.30
2019-04-05T18:27:43.031Z,41.07
2019-04-05T18:30:11.680Z,30.03
2019-04-05T18:32:40.127Z,38.30
2019-04-05T18:35:08.735Z,37.03
2019-04-05T18:37:37.151Z,33.60
2019-04-05T18:40:07.344Z,38.07
2019-04-05T18:42:35.780Z,33.33
2019-04-05T18:45:06.473Z,38.33
2019-04-05T18:47:34.927Z,32.37
2019-04-05T18:50:04.348Z,32.57
2019-04-05T18:52:32.786Z,33.53
2019-04-05T18:55:01.239Z,66.90
2019-04-05T18:57:29.686Z,79.17
2019-04-05T18:59:58.137Z,37.03
2019-04-05T19:02:26.577Z,34.40
2019-04-05T19:04:55.958Z,38.10
2019-04-05T19:07:24.390Z,37.50
2019-04-05T19:09:52.926Z,28.07
2019-04-05T19:12:21.386Z,31.53
2019-04-05T19:14:49.828Z,548.53
2019-04-05T19:17:24.170Z,42.80
2019-04-05T19:19:48.449Z,38.03
2019-04-05T19:22:16.910Z,25.13
2019-04-05T19:24:45.374Z,20.63
2019-04-05T19:27:13.815Z,30.97
2019-04-05T19:29:42.432Z,30.40
2019-04-05T19:49:42.101Z,33.37
2019-04-05T19:52:10.573Z,118.53
2019-04-05T19:54:39.051Z,128.97
2019-04-05T19:57:07.490Z,34.50
2019-04-05T19:59:35.929Z,34.90
2019-04-05T20:02:04.510Z,23.07
2019-04-05T20:04:32.951Z,21.30
2019-04-05T20:07:01.419Z,16.13
2019-04-05T20:09:29.881Z,15.27
2019-04-05T20:11:58.349Z,20.10
2019-04-05T20:14:26.806Z,16.17
2019-04-05T20:16:56.169Z,15.60
2019-04-05T20:19:24.625Z,22.60
2019-04-05T20:21:53.068Z,15.57
2019-04-05T20:24:21.486Z,18.40
2019-04-05T20:26:49.959Z,15.93
2019-04-05T20:29:18.405Z,21.67
2019-04-05T20:31:46.841Z,22.03
2019-04-05T20:34:15.288Z,18.63
2019-04-05T20:36:43.712Z,20.83
2019-04-05T20:39:12.178Z,18.83
2019-04-05T20:41:40.600Z,18.70
2019-04-05T20:44:09.031Z,22.83
2019-04-05T20:46:37.486Z,20.80
2019-04-05T20:49:06.080Z,16.87
2019-04-05T20:51:34.521Z,18.20
2019-04-05T20:54:02.971Z,19.80
2019-04-05T20:56:31.413Z,21.07
2019-04-05T20:58:59.835Z,23.93
2019-04-05T21:01:28.326Z,17.70
2019-04-05T21:03:56.799Z,20.93
2019-04-05T21:06:26.229Z,20.07
2019-04-05T21:08:54.685Z,20.97
2019-04-05T21:11:23.235Z,19.93
2019-04-05T21:13:51.652Z,22.23
2019-04-05T21:16:20.128Z,22.10
2019-04-05T21:18:48.673Z,17.53
2019-04-05T21:21:17.206Z,18.03
2019-04-05T21:23:45.750Z,19.90
2019-04-05T21:26:14.211Z,22.73
2019-04-05T21:28:42.710Z,20.30
2019-04-05T21:31:11.223Z,19.77
2019-04-05T21:33:39.670Z,19.57
2019-04-05T21:36:08.099Z,15.87
2019-04-05T21:38:36.599Z,24.73
2019-04-05T21:41:05.031Z,27.97
2019-04-05T21:43:33.495Z,19.60
2019-04-05T21:46:01.964Z,28.70
2019-04-05T21:48:30.699Z,28.17
2019-04-05T21:50:59.285Z,31.23
2019-04-05T21:53:27.735Z,52.50
2019-04-05T21:55:56.255Z,33.63
2019-04-05T21:58:25.973Z,20.80
2019-04-05T22:01:02.231Z,23.60
2019-04-05T22:03:30.856Z,20.90
2019-04-05T22:05:59.322Z,28.00
2019-04-05T22:08:27.766Z,22.90
2019-04-05T22:10:56.403Z,24.07
2019-04-05T22:13:24.954Z,20.47
2019-04-05T22:15:53.380Z,19.80
2019-04-05T22:18:21.831Z,45.70
2019-04-05T22:20:50.329Z,32.73
2019-04-05T22:23:18.776Z,18.23
2019-04-05T22:25:47.195Z,19.67
2019-04-05T22:28:15.733Z,21.10
2019-04-05T22:30:44.205Z,20.93
2019-04-05T22:33:12.647Z,24.07
2019-04-05T22:35:41.109Z,24.27
2019-04-05T22:38:09.569Z,22.30
2019-04-05T22:40:37.991Z,23.20
2019-04-05T22:43:06.546Z,18.67
2019-04-05T22:45:35.015Z,19.17
2019-04-05T22:48:03.486Z,17.63
2019-04-05T22:50:32.057Z,19.13
2019-04-05T22:53:00.484Z,22.23
2019-04-05T22:55:28.936Z,20.13
2019-04-05T22:57:57.516Z,20.50
2019-04-05T23:00:26.397Z,18.27
2019-04-05T23:02:54.857Z,20.60
2019-04-05T23:05:23.328Z,19.73
2019-04-05T23:07:51.852Z,18.27
2019-04-05T23:10:20.451Z,19.03
2019-04-05T23:12:48.955Z,37.87
2019-04-05T23:15:17.453Z,45.73
2019-04-05T23:17:45.917Z,21.43
2019-04-05T23:20:14.441Z,19.80
2019-04-05T23:22:42.892Z,20.87
2019-04-05T23:25:21.529Z,22.43
2019-04-05T23:27:41.611Z,18.77
2019-04-05T23:30:10.128Z,21.87
2019-04-05T23:32:38.587Z,21.60
2019-04-05T23:35:07.459Z,23.30
2019-04-05T23:37:36.029Z,19.07
2019-04-05T23:40:05.869Z,22.90
2019-04-05T23:42:34.325Z,22.53
2019-04-05T23:45:02.749Z,29.53
2019-04-05T23:47:31.208Z,23.20
2019-04-05T23:49:59.647Z,22.00
2019-04-05T23:52:28.181Z,21.93
2019-04-05T23:54:56.677Z,22.37
2019-04-05T23:57:25.197Z,24.60
2019-04-05T23:59:53.619Z,21.13
